sensor_id;sensor_type;location;lat;lon;timestamp;pressure;altitude;pressure_sealevel;temperature;humidity
21182;BME280;10749;46.296;7.524;2023-05-07T00:01:00;94805.97;;;19.69;35.68
21182;BME280;10749;46.296;7.524;2023-05-07T00:03:25;94787.41;;;19.68;35.56
21182;BME280;10749;46.296;7.524;2023-05-07T00:05:51;94793.91;;;19.72;35.61
21182;BME280;10749;46.296;7.524;2023-05-07T00:08:18;94793.09;;;19.71;35.92
21182;BME280;10749;46.296;7.524;2023-05-07T00:10:43;94793.34;;;19.70;35.80
21182;BME280;10749;46.296;7.524;2023-05-07T00:13:09;94790.00;;;19.63;36.21
21182;BME280;10749;46.296;7.524;2023-05-07T00:15:34;94798.16;;;19.56;36.39
21182;BME280;10749;46.296;7.524;2023-05-07T00:17:59;94795.00;;;19.59;36.25
21182;BME280;10749;46.296;7.524;2023-05-07T00:20:25;94789.28;;;19.56;36.19
21182;BME280;10749;46.296;7.524;2023-05-07T00:22:50;94791.06;;;19.50;36.54
21182;BME280;10749;46.296;7.524;2023-05-07T00:25:16;94781.47;;;19.43;36.16
21182;BME280;10749;46.296;7.524;2023-05-07T00:27:41;94779.25;;;19.40;36.10
21182;BME280;10749;46.296;7.524;2023-05-07T00:30:06;94781.25;;;19.44;36.35
21182;BME280;10749;46.296;7.524;2023-05-07T00:32:32;94780.06;;;19.40;36.19
21182;BME280;10749;46.296;7.524;2023-05-07T00:34:57;94777.50;;;19.33;36.63
21182;BME280;10749;46.296;7.524;2023-05-07T00:37:23;94779.03;;;19.29;36.63
21182;BME280;10749;46.296;7.524;2023-05-07T00:39:49;94768.31;;;19.29;36.16
21182;BME280;10749;46.296;7.524;2023-05-07T00:42:14;94768.75;;;19.26;36.33
21182;BME280;10749;46.296;7.524;2023-05-07T00:44:41;94774.59;;;19.23;36.49
21182;BME280;10749;46.296;7.524;2023-05-07T00:47:07;94773.78;;;19.23;36.39
21182;BME280;10749;46.296;7.524;2023-05-07T00:49:41;94773.91;;;19.16;36.41
21182;BME280;10749;46.296;7.524;2023-05-07T00:52:07;94766.09;;;19.15;36.43
21182;BME280;10749;46.296;7.524;2023-05-07T00:54:34;94766.56;;;19.12;36.59
21182;BME280;10749;46.296;7.524;2023-05-07T00:57:02;94766.56;;;19.12;36.37
21182;BME280;10749;46.296;7.524;2023-05-07T00:59:28;94771.81;;;19.07;36.32
21182;BME280;10749;46.296;7.524;2023-05-07T01:01:54;94772.03;;;19.05;36.61
21182;BME280;10749;46.296;7.524;2023-05-07T01:04:19;94780.44;;;19.09;36.30
21182;BME280;10749;46.296;7.524;2023-05-07T01:06:45;94781.84;;;19.11;36.36
21182;BME280;10749;46.296;7.524;2023-05-07T01:09:12;94786.16;;;19.12;36.39
21182;BME280;10749;46.296;7.524;2023-05-07T01:11:37;94791.41;;;19.07;36.70
21182;BME280;10749;46.296;7.524;2023-05-07T01:14:04;94780.88;;;19.06;36.48
21182;BME280;10749;46.296;7.524;2023-05-07T01:16:30;94782.41;;;19.02;36.52
21182;BME280;10749;46.296;7.524;2023-05-07T01:18:56;94783.56;;;19.06;36.55
21182;BME280;10749;46.296;7.524;2023-05-07T01:21:25;94790.34;;;19.08;36.39
21182;BME280;10749;46.296;7.524;2023-05-07T01:23:52;94778.00;;;19.07;36.25
21182;BME280;10749;46.296;7.524;2023-05-07T01:26:17;94780.66;;;19.07;36.67
21182;BME280;10749;46.296;7.524;2023-05-07T01:28:45;94783.13;;;19.09;36.41
21182;BME280;10749;46.296;7.524;2023-05-07T01:31:12;94782.31;;;19.08;36.39
21182;BME280;10749;46.296;7.524;2023-05-07T01:33:40;94778.69;;;19.03;36.58
21182;BME280;10749;46.296;7.524;2023-05-07T01:36:07;94775.53;;;18.94;36.65
21182;BME280;10749;46.296;7.524;2023-05-07T01:38:35;94775.88;;;18.86;36.87
21182;BME280;10749;46.296;7.524;2023-05-07T01:41:01;94772.38;;;18.85;36.84
21182;BME280;10749;46.296;7.524;2023-05-07T01:43:28;94776.91;;;18.85;37.00
21182;BME280;10749;46.296;7.524;2023-05-07T01:45:55;94775.88;;;18.86;36.93
21182;BME280;10749;46.296;7.524;2023-05-07T01:48:20;94777.72;;;18.85;37.01
21182;BME280;10749;46.296;7.524;2023-05-07T01:50:46;94775.31;;;18.84;37.09
21182;BME280;10749;46.296;7.524;2023-05-07T01:53:12;94778.56;;;18.86;37.08
21182;BME280;10749;46.296;7.524;2023-05-07T01:55:37;94777.72;;;18.85;37.29
21182;BME280;10749;46.296;7.524;2023-05-07T01:58:03;94773.88;;;18.81;37.21
21182;BME280;10749;46.296;7.524;2023-05-07T02:00:28;94773.06;;;18.81;37.36
21182;BME280;10749;46.296;7.524;2023-05-07T02:02:54;94766.31;;;18.78;37.31
21182;BME280;10749;46.296;7.524;2023-05-07T02:05:19;94772.16;;;18.75;37.57
21182;BME280;10749;46.296;7.524;2023-05-07T02:07:44;94768.03;;;18.73;37.43
21182;BME280;10749;46.296;7.524;2023-05-07T02:10:10;94773.88;;;18.70;37.46
21182;BME280;10749;46.296;7.524;2023-05-07T02:12:35;94774.44;;;18.60;37.92
21182;BME280;10749;46.296;7.524;2023-05-07T02:15:00;94779.44;;;18.57;37.74
21182;BME280;10749;46.296;7.524;2023-05-07T02:17:25;94781.56;;;18.55;37.73
21182;BME280;10749;46.296;7.524;2023-05-07T02:19:51;94772.91;;;18.53;37.80
21182;BME280;10749;46.296;7.524;2023-05-07T02:22:16;94775.38;;;18.54;37.49
21182;BME280;10749;46.296;7.524;2023-05-07T02:24:41;94776.19;;;18.55;37.86
21182;BME280;10749;46.296;7.524;2023-05-07T02:27:07;94775.00;;;18.51;37.43
21182;BME280;10749;46.296;7.524;2023-05-07T02:29:32;94772.91;;;18.53;37.44
21182;BME280;10749;46.296;7.524;2023-05-07T02:31:57;94778.47;;;18.51;37.68
21182;BME280;10749;46.296;7.524;2023-05-07T02:34:22;94780.34;;;18.51;37.62
21182;BME280;10749;46.296;7.524;2023-05-07T02:36:48;94777.44;;;18.52;37.75
21182;BME280;10749;46.296;7.524;2023-05-07T02:39:13;94778.34;;;18.46;37.63
21182;BME280;10749;46.296;7.524;2023-05-07T02:41:39;94775.06;;;18.44;37.61
21182;BME280;10749;46.296;7.524;2023-05-07T02:44:04;94782.53;;;18.42;37.88
21182;BME280;10749;46.296;7.524;2023-05-07T02:46:29;94771.34;;;18.33;36.99
21182;BME280;10749;46.296;7.524;2023-05-07T02:48:55;94766.78;;;18.34;37.80
21182;BME280;10749;46.296;7.524;2023-05-07T02:51:21;94770.28;;;18.34;37.86
21182;BME280;10749;46.296;7.524;2023-05-07T02:53:46;94771.47;;;18.38;37.76
21182;BME280;10749;46.296;7.524;2023-05-07T02:56:12;94774.38;;;18.37;38.00
21182;BME280;10749;46.296;7.524;2023-05-07T02:58:37;94771.00;;;18.41;37.99
21182;BME280;10749;46.296;7.524;2023-05-07T03:01:05;94773.91;;;18.40;37.94
21182;BME280;10749;46.296;7.524;2023-05-07T03:03:30;94768.66;;;18.33;37.95
21182;BME280;10749;46.296;7.524;2023-05-07T03:05:55;94766.19;;;18.32;38.36
21182;BME280;10749;46.296;7.524;2023-05-07T03:08:21;94762.69;;;18.31;38.10
21182;BME280;10749;46.296;7.524;2023-05-07T03:10:46;94763.72;;;18.30;38.37
21182;BME280;10749;46.296;7.524;2023-05-07T03:13:12;94768.03;;;18.31;38.46
21182;BME280;10749;46.296;7.524;2023-05-07T03:15:37;94764.34;;;18.32;38.45
21182;BME280;10749;46.296;7.524;2023-05-07T03:18:02;94767.47;;;18.29;38.07
21182;BME280;10749;46.296;7.524;2023-05-07T03:20:28;94756.16;;;18.27;38.12
21182;BME280;10749;46.296;7.524;2023-05-07T03:22:53;94770.38;;;18.28;37.74
21182;BME280;10749;46.296;7.524;2023-05-07T03:25:18;94767.91;;;18.26;37.27
21182;BME280;10749;46.296;7.524;2023-05-07T03:27:44;94759.75;;;18.21;37.01
21182;BME280;10749;46.296;7.524;2023-05-07T03:30:10;94762.78;;;18.13;36.99
21182;BME280;10749;46.296;7.524;2023-05-07T03:32:35;94758.44;;;18.12;37.18
21182;BME280;10749;46.296;7.524;2023-05-07T03:35:01;94762.78;;;18.13;37.33
21182;BME280;10749;46.296;7.524;2023-05-07T03:37:27;94767.06;;;18.14;37.83
21182;BME280;10749;46.296;7.524;2023-05-07T03:39:52;94765.56;;;18.18;37.80
21182;BME280;10749;46.296;7.524;2023-05-07T03:42:17;94759.03;;;18.14;37.83
21182;BME280;10749;46.296;7.524;2023-05-07T03:44:43;94773.03;;;18.16;37.97
21182;BME280;10749;46.296;7.524;2023-05-07T03:47:08;94769.72;;;18.14;37.91
21182;BME280;10749;46.296;7.524;2023-05-07T03:49:35;94773.34;;;18.08;37.63
21182;BME280;10749;46.296;7.524;2023-05-07T03:52:00;94773.66;;;18.00;37.80
21182;BME280;10749;46.296;7.524;2023-05-07T03:54:25;94775.47;;;17.88;38.06
21182;BME280;10749;46.296;7.524;2023-05-07T03:56:50;94777.63;;;17.79;37.88
21182;BME280;10749;46.296;7.524;2023-05-07T03:59:16;94781.19;;;17.73;37.99
21182;BME280;10749;46.296;7.524;2023-05-07T04:01:41;94789.78;;;17.64;38.65
21182;BME280;10749;46.296;7.524;2023-05-07T04:04:06;94782.63;;;17.58;38.60
21182;BME280;10749;46.296;7.524;2023-05-07T04:06:32;94779.34;;;17.56;38.88
21182;BME280;10749;46.296;7.524;2023-05-07T04:08:57;94782.03;;;17.56;38.89
21182;BME280;10749;46.296;7.524;2023-05-07T04:11:22;94787.06;;;17.45;38.80
21182;BME280;10749;46.296;7.524;2023-05-07T04:13:48;94795.19;;;17.39;39.03
21182;BME280;10749;46.296;7.524;2023-05-07T04:16:13;94794.78;;;17.35;39.50
21182;BME280;10749;46.296;7.524;2023-05-07T04:18:38;94790.13;;;17.31;39.31
21182;BME280;10749;46.296;7.524;2023-05-07T04:21:04;94793.84;;;17.30;39.65
21182;BME280;10749;46.296;7.524;2023-05-07T04:23:29;94798.50;;;17.34;39.55
21182;BME280;10749;46.296;7.524;2023-05-07T04:25:54;94803.03;;;17.34;39.46
21182;BME280;10749;46.296;7.524;2023-05-07T04:28:20;94801.25;;;17.28;39.66
21182;BME280;10749;46.296;7.524;2023-05-07T04:30:45;94800.88;;;17.24;39.70
21182;BME280;10749;46.296;7.524;2023-05-07T04:33:11;94809.09;;;17.23;39.64
21182;BME280;10749;46.296;7.524;2023-05-07T04:35:36;94806.22;;;17.24;39.95
21182;BME280;10749;46.296;7.524;2023-05-07T04:38:02;94802.06;;;17.28;39.68
21182;BME280;10749;46.296;7.524;2023-05-07T04:40:27;94801.63;;;17.31;40.02
21182;BME280;10749;46.296;7.524;2023-05-07T04:42:52;94800.13;;;17.35;39.98
21182;BME280;10749;46.296;7.524;2023-05-07T04:45:18;94798.88;;;17.38;39.68
21182;BME280;10749;46.296;7.524;2023-05-07T04:47:43;94808.56;;;17.39;40.14
21182;BME280;10749;46.296;7.524;2023-05-07T04:50:09;94803.56;;;17.42;40.03
21182;BME280;10749;46.296;7.524;2023-05-07T04:52:35;94801.47;;;17.44;40.27
21182;BME280;10749;46.296;7.524;2023-05-07T04:55:01;94815.47;;;17.46;40.27
21182;BME280;10749;46.296;7.524;2023-05-07T04:57:27;94811.31;;;17.50;40.50
21182;BME280;10749;46.296;7.524;2023-05-07T04:59:52;94806.31;;;17.54;40.35
21182;BME280;10749;46.296;7.524;2023-05-07T05:02:18;94818.41;;;17.57;40.19
21182;BME280;10749;46.296;7.524;2023-05-07T05:04:43;94820.72;;;17.60;40.42
21182;BME280;10749;46.296;7.524;2023-05-07T05:07:08;94822.09;;;17.62;40.31
21182;BME280;10749;46.296;7.524;2023-05-07T05:09:34;94841.22;;;17.66;40.68
21182;BME280;10749;46.296;7.524;2023-05-07T05:11:59;94849.84;;;17.68;40.85
21182;BME280;10749;46.296;7.524;2023-05-07T05:14:24;94852.28;;;17.69;40.59
21182;BME280;10749;46.296;7.524;2023-05-07T05:16:50;94863.50;;;17.78;40.68
21182;BME280;10749;46.296;7.524;2023-05-07T05:19:15;94865.31;;;17.84;40.70
21182;BME280;10749;46.296;7.524;2023-05-07T05:21:40;94875.09;;;17.90;40.63
21182;BME280;10749;46.296;7.524;2023-05-07T05:24:06;94880.81;;;17.93;40.75
21182;BME280;10749;46.296;7.524;2023-05-07T05:26:31;94882.63;;;17.99;40.74
21182;BME280;10749;46.296;7.524;2023-05-07T05:28:56;94894.31;;;18.05;40.89
21182;BME280;10749;46.296;7.524;2023-05-07T05:31:22;94904.84;;;17.82;42.09
21182;BME280;10749;46.296;7.524;2023-05-07T05:33:47;94910.81;;;17.84;41.51
21182;BME280;10749;46.296;7.524;2023-05-07T05:36:12;94916.38;;;17.82;42.04
21182;BME280;10749;46.296;7.524;2023-05-07T05:38:38;94917.56;;;17.86;42.16
21182;BME280;10749;46.296;7.524;2023-05-07T05:41:04;94913.88;;;17.87;42.29
21182;BME280;10749;46.296;7.524;2023-05-07T05:43:29;94924.50;;;17.94;42.02
21182;BME280;10749;46.296;7.524;2023-05-07T05:45:55;94908.44;;;17.94;42.09
21182;BME280;10749;46.296;7.524;2023-05-07T05:48:21;94919.97;;;17.94;42.37
21182;BME280;10749;46.296;7.524;2023-05-07T05:50:46;94917.06;;;17.96;42.26
21182;BME280;10749;46.296;7.524;2023-05-07T05:53:11;94909.63;;;17.98;42.31
21182;BME280;10749;46.296;7.524;2023-05-07T05:55:36;94914.84;;;17.93;42.28
21182;BME280;10749;46.296;7.524;2023-05-07T05:58:02;94911.47;;;17.97;42.17
21182;BME280;10749;46.296;7.524;2023-05-07T06:00:28;94914.53;;;18.01;40.99
21182;BME280;10749;46.296;7.524;2023-05-07T06:02:54;94921.00;;;17.93;42.07
21182;BME280;10749;46.296;7.524;2023-05-07T06:05:19;94911.25;;;17.99;41.92
21182;BME280;10749;46.296;7.524;2023-05-07T06:07:44;94913.84;;;18.06;42.13
21182;BME280;10749;46.296;7.524;2023-05-07T06:10:10;94907.41;;;18.13;41.97
21182;BME280;10749;46.296;7.524;2023-05-07T06:12:35;94913.94;;;18.17;41.73
21182;BME280;10749;46.296;7.524;2023-05-07T06:15:00;94918.47;;;18.17;41.85
21182;BME280;10749;46.296;7.524;2023-05-07T06:17:26;94917.66;;;18.16;41.77
21182;BME280;10749;46.296;7.524;2023-05-07T06:19:52;94919.88;;;18.19;42.09
21182;BME280;10749;46.296;7.524;2023-05-07T06:22:17;94917.81;;;18.21;41.98
21182;BME280;10749;46.296;7.524;2023-05-07T06:24:42;94913.13;;;18.17;41.95
21182;BME280;10749;46.296;7.524;2023-05-07T06:27:08;94919.50;;;18.16;41.97
21182;BME280;10749;46.296;7.524;2023-05-07T06:29:33;94918.22;;;18.18;42.17
21182;BME280;10749;46.296;7.524;2023-05-07T06:32:12;94923.59;;;18.18;42.27
21182;BME280;10749;46.296;7.524;2023-05-07T06:34:38;94923.16;;;18.21;42.25
21182;BME280;10749;46.296;7.524;2023-05-07T06:37:04;94922.72;;;18.24;42.03
21182;BME280;10749;46.296;7.524;2023-05-07T06:39:29;94923.16;;;18.21;41.73
21182;BME280;10749;46.296;7.524;2023-05-07T06:41:55;94921.16;;;18.17;42.61
21182;BME280;10749;46.296;7.524;2023-05-07T06:44:20;94918.84;;;18.20;42.74
21182;BME280;10749;46.296;7.524;2023-05-07T06:46:45;94914.31;;;18.21;43.04
21182;BME280;10749;46.296;7.524;2023-05-07T06:49:14;94919.88;;;18.19;43.03
21182;BME280;10749;46.296;7.524;2023-05-07T06:51:39;94913.94;;;18.17;43.45
21182;BME280;10749;46.296;7.524;2023-05-07T06:54:05;94908.59;;;18.17;43.66
21182;BME280;10749;46.296;7.524;2023-05-07T06:56:31;94909.78;;;18.21;43.50
21182;BME280;10749;46.296;7.524;2023-05-07T06:58:56;94912.13;;;18.29;43.81
21182;BME280;10749;46.296;7.524;2023-05-07T07:01:22;94911.84;;;18.37;44.01
21182;BME280;10749;46.296;7.524;2023-05-07T07:03:47;94907.41;;;18.43;43.78
21182;BME280;10749;46.296;7.524;2023-05-07T07:06:12;94901.38;;;18.48;44.18
21182;BME280;10749;46.296;7.524;2023-05-07T07:08:38;94897.84;;;18.54;44.19
21182;BME280;10749;46.296;7.524;2023-05-07T07:11:04;94893.53;;;18.64;44.66
21182;BME280;10749;46.296;7.524;2023-05-07T07:13:29;94891.16;;;18.74;44.28
21182;BME280;10749;46.296;7.524;2023-05-07T07:15:55;94890.00;;;18.82;44.35
21182;BME280;10749;46.296;7.524;2023-05-07T07:18:20;94881.97;;;18.94;44.91
21182;BME280;10749;46.296;7.524;2023-05-07T07:20:45;94875.59;;;19.06;44.64
21182;BME280;10749;46.296;7.524;2023-05-07T07:23:11;94882.72;;;19.24;44.73
21182;BME280;10749;46.296;7.524;2023-05-07T07:25:36;94876.44;;;19.30;44.53
21182;BME280;10749;46.296;7.524;2023-05-07T07:28:01;94874.22;;;19.38;44.62
21182;BME280;10749;46.296;7.524;2023-05-07T07:30:27;94875.03;;;19.39;44.36
21182;BME280;10749;46.296;7.524;2023-05-07T07:32:52;94871.31;;;19.40;44.54
21182;BME280;10749;46.296;7.524;2023-05-07T07:35:18;94869.59;;;19.46;44.26
21182;BME280;10749;46.296;7.524;2023-05-07T07:37:43;94867.13;;;19.44;44.66
21182;BME280;10749;46.296;7.524;2023-05-07T07:40:09;94870.03;;;19.43;44.02
21182;BME280;10749;46.296;7.524;2023-05-07T07:42:35;94855.59;;;19.44;44.30
21182;BME280;10749;46.296;7.524;2023-05-07T07:45:00;94861.63;;;19.51;44.15
21182;BME280;10749;46.296;7.524;2023-05-07T07:47:25;94857.44;;;19.55;43.56
21182;BME280;10749;46.296;7.524;2023-05-07T07:49:51;94864.78;;;19.59;43.48
21182;BME280;10749;46.296;7.524;2023-05-07T07:52:16;94858.59;;;19.59;43.15
21182;BME280;10749;46.296;7.524;2023-05-07T07:54:41;94860.13;;;19.55;42.71
21182;BME280;10749;46.296;7.524;2023-05-07T07:57:06;94862.00;;;19.54;43.28
21182;BME280;10749;46.296;7.524;2023-05-07T07:59:32;94854.44;;;19.63;42.49
21182;BME280;10749;46.296;7.524;2023-05-07T08:01:57;94855.00;;;19.65;42.34
21182;BME280;10749;46.296;7.524;2023-05-07T08:04:22;94854.63;;;19.73;43.33
21182;BME280;10749;46.296;7.524;2023-05-07T08:06:48;94851.59;;;19.81;42.97
21182;BME280;10749;46.296;7.524;2023-05-07T08:09:13;94850.28;;;19.95;42.79
21182;BME280;10749;46.296;7.524;2023-05-07T08:11:39;94841.97;;;20.08;42.72
21182;BME280;10749;46.296;7.524;2023-05-07T08:14:04;94833.25;;;20.30;43.18
21182;BME280;10749;46.296;7.524;2023-05-07T08:16:30;94837.41;;;20.49;43.30
21182;BME280;10749;46.296;7.524;2023-05-07T08:18:55;94838.91;;;20.73;43.41
21182;BME280;10749;46.296;7.524;2023-05-07T08:21:22;94841.03;;;20.88;43.82
21182;BME280;10749;46.296;7.524;2023-05-07T08:23:47;94832.81;;;20.94;43.17
21182;BME280;10749;46.296;7.524;2023-05-07T08:26:12;94828.00;;;20.96;42.70
21182;BME280;10749;46.296;7.524;2023-05-07T08:28:37;94826.31;;;20.90;42.39
21182;BME280;10749;46.296;7.524;2023-05-07T08:31:03;94824.34;;;20.86;42.11
21182;BME280;10749;46.296;7.524;2023-05-07T08:33:28;94826.22;;;20.85;42.24
21182;BME280;10749;46.296;7.524;2023-05-07T08:35:54;94819.84;;;20.91;42.30
21182;BME280;10749;46.296;7.524;2023-05-07T08:38:19;94820.50;;;20.98;43.00
21182;BME280;10749;46.296;7.524;2023-05-07T08:40:45;94822.78;;;21.06;42.94
21182;BME280;10749;46.296;7.524;2023-05-07T08:43:13;94813.53;;;21.14;42.52
21182;BME280;10749;46.296;7.524;2023-05-07T08:45:40;94821.91;;;21.17;42.31
21182;BME280;10749;46.296;7.524;2023-05-07T08:48:09;94818.25;;;21.24;42.60
21182;BME280;10749;46.296;7.524;2023-05-07T08:50:39;94817.97;;;21.42;42.75
21182;BME280;10749;46.296;7.524;2023-05-07T08:53:04;94819.28;;;21.56;42.43
21182;BME280;10749;46.296;7.524;2023-05-07T08:55:30;94807.56;;;21.67;42.63
21182;BME280;10749;46.296;7.524;2023-05-07T08:57:55;94813.22;;;21.66;42.44
21182;BME280;10749;46.296;7.524;2023-05-07T09:00:21;94806.75;;;21.67;41.91
21182;BME280;10749;46.296;7.524;2023-05-07T09:02:46;94808.69;;;21.71;41.94
21182;BME280;10749;46.296;7.524;2023-05-07T09:05:12;94795.09;;;21.61;41.77
21182;BME280;10749;46.296;7.524;2023-05-07T09:07:37;94792.72;;;21.64;42.03
21182;BME280;10749;46.296;7.524;2023-05-07T09:10:03;94799.56;;;21.72;42.07
21182;BME280;10749;46.296;7.524;2023-05-07T09:12:29;94794.78;;;21.79;41.99
21182;BME280;10749;46.296;7.524;2023-05-07T09:14:54;94799.72;;;21.82;42.23
21182;BME280;10749;46.296;7.524;2023-05-07T09:17:20;94793.97;;;21.79;41.75
21182;BME280;10749;46.296;7.524;2023-05-07T09:19:45;94796.34;;;21.75;41.76
21182;BME280;10749;46.296;7.524;2023-05-07T09:22:11;94799.56;;;21.72;41.62
21182;BME280;10749;46.296;7.524;2023-05-07T09:24:37;94795.91;;;21.83;41.45
21182;BME280;10749;46.296;7.524;2023-05-07T09:27:04;94798.53;;;21.78;41.24
21182;BME280;10749;46.296;7.524;2023-05-07T09:29:30;94795.59;;;21.80;41.05
21182;BME280;10749;46.296;7.524;2023-05-07T09:32:03;94792.25;;;21.89;41.34
21182;BME280;10749;46.296;7.524;2023-05-07T09:34:31;94792.34;;;21.94;41.38
21182;BME280;10749;46.296;7.524;2023-05-07T09:37:04;94781.06;;;21.97;41.34
21182;BME280;10749;46.296;7.524;2023-05-07T09:39:40;94770.19;;;22.14;41.36
21182;BME280;10749;46.296;7.524;2023-05-07T09:42:06;94767.97;;;22.33;41.52
21182;BME280;10749;46.296;7.524;2023-05-07T09:44:32;94767.84;;;22.49;41.38
21182;BME280;10749;46.296;7.524;2023-05-07T09:46:59;94757.47;;;22.63;41.55
21182;BME280;10749;46.296;7.524;2023-05-07T09:49:29;94758.28;;;22.64;41.55
21182;BME280;10749;46.296;7.524;2023-05-07T09:51:57;94758.41;;;22.74;41.50
21182;BME280;10749;46.296;7.524;2023-05-07T09:54:24;94768.19;;;22.80;41.21
21182;BME280;10749;46.296;7.524;2023-05-07T09:56:52;94758.50;;;22.84;41.11
21182;BME280;10749;46.296;7.524;2023-05-07T09:59:18;94751.75;;;22.86;41.23
21182;BME280;10749;46.296;7.524;2023-05-07T10:01:45;94750.66;;;22.82;40.72
21182;BME280;10749;46.296;7.524;2023-05-07T10:04:10;94751.41;;;22.73;40.74
21182;BME280;10749;46.296;7.524;2023-05-07T10:06:37;94750.34;;;22.79;40.90
21182;BME280;10749;46.296;7.524;2023-05-07T10:09:04;94745.53;;;22.86;40.66
21182;BME280;10749;46.296;7.524;2023-05-07T10:11:33;94743.28;;;23.05;40.69
21182;BME280;10749;46.296;7.524;2023-05-07T10:13:59;94750.66;;;23.19;40.81
21182;BME280;10749;46.296;7.524;2023-05-07T10:16:25;94737.97;;;23.15;40.87
21182;BME280;10749;46.296;7.524;2023-05-07T10:18:51;94744.50;;;23.29;40.67
21182;BME280;10749;46.296;7.524;2023-05-07T10:21:19;94744.59;;;23.39;40.77
21182;BME280;10749;46.296;7.524;2023-05-07T10:23:49;94736.84;;;23.53;40.63
21182;BME280;10749;46.296;7.524;2023-05-07T10:26:15;94732.34;;;23.68;40.68
21182;BME280;10749;46.296;7.524;2023-05-07T10:28:46;94733.38;;;23.62;40.46
21182;BME280;10749;46.296;7.524;2023-05-07T10:31:36;94735.56;;;23.60;40.37
21182;BME280;10749;46.296;7.524;2023-05-07T10:34:10;94728.03;;;23.67;40.16
21182;BME280;10749;46.296;7.524;2023-05-07T10:36:36;94728.34;;;23.76;40.32
21182;BME280;10749;46.296;7.524;2023-05-07T10:39:02;94716.72;;;23.85;39.88
21182;BME280;10749;46.296;7.524;2023-05-07T10:41:27;94721.63;;;23.93;39.90
21182;BME280;10749;46.296;7.524;2023-05-07T10:43:53;94719.00;;;24.14;39.63
21182;BME280;10749;46.296;7.524;2023-05-07T10:46:19;94714.19;;;24.31;39.59
21182;BME280;10749;46.296;7.524;2023-05-07T10:51:26;94718.53;;;24.37;39.13
21182;BME280;10749;46.296;7.524;2023-05-07T10:56:39;94705.50;;;24.14;38.40
21182;BME280;10749;46.296;7.524;2023-05-07T11:01:53;94689.59;;;24.48;39.05
21182;BME280;10749;46.296;7.524;2023-05-07T11:04:19;94697.47;;;24.39;38.11
21182;BME280;10749;46.296;7.524;2023-05-07T11:07:25;94692.56;;;24.41;38.40
21182;BME280;10749;46.296;7.524;2023-05-07T11:15:01;94687.13;;;24.31;37.83
21182;BME280;10749;46.296;7.524;2023-05-07T11:17:26;94673.09;;;24.29;38.62
21182;BME280;10749;46.296;7.524;2023-05-07T11:19:55;94672.28;;;24.28;38.11
21182;BME280;10749;46.296;7.524;2023-05-07T11:22:39;94687.88;;;24.11;38.48
21182;BME280;10749;46.296;7.524;2023-05-07T11:25:07;94677.34;;;24.05;38.10
21182;BME280;10749;46.296;7.524;2023-05-07T11:27:33;94677.84;;;23.91;38.42
21182;BME280;10749;46.296;7.524;2023-05-07T11:29:59;94675.13;;;23.86;38.46
21182;BME280;10749;46.296;7.524;2023-05-07T11:32:27;94674.84;;;23.83;38.31
21182;BME280;10749;46.296;7.524;2023-05-07T11:34:57;94659.09;;;23.65;38.54
21182;BME280;10749;46.296;7.524;2023-05-07T11:37:24;94659.91;;;23.60;38.38
21182;BME280;10749;46.296;7.524;2023-05-07T11:39:50;94652.50;;;23.35;38.34
21182;BME280;10749;46.296;7.524;2023-05-07T11:42:30;94667.88;;;23.35;38.60
21182;BME280;10749;46.296;7.524;2023-05-07T11:44:56;94658.69;;;23.36;38.77
21182;BME280;10749;46.296;7.524;2023-05-07T11:47:22;94663.56;;;23.39;38.50
21182;BME280;10749;46.296;7.524;2023-05-07T11:49:49;94649.53;;;23.42;38.72
21182;BME280;10749;46.296;7.524;2023-05-07T11:52:19;94644.69;;;23.44;38.80
21182;BME280;10749;46.296;7.524;2023-05-07T11:54:55;94646.91;;;23.47;39.10
21182;BME280;10749;46.296;7.524;2023-05-07T11:57:21;94638.78;;;23.47;38.92
21182;BME280;10749;46.296;7.524;2023-05-07T11:59:47;94637.38;;;23.39;39.02
21182;BME280;10749;46.296;7.524;2023-05-07T12:02:14;94643.53;;;23.30;39.09
21182;BME280;10749;46.296;7.524;2023-05-07T12:04:40;94643.56;;;23.40;39.30
21182;BME280;10749;46.296;7.524;2023-05-07T12:07:11;94644.09;;;23.37;39.52
21182;BME280;10749;46.296;7.524;2023-05-07T12:09:38;94640.63;;;23.41;39.24
21182;BME280;10749;46.296;7.524;2023-05-07T12:12:04;94645.75;;;23.38;39.53
21182;BME280;10749;46.296;7.524;2023-05-07T12:14:29;94644.09;;;23.37;39.50
21182;BME280;10749;46.296;7.524;2023-05-07T12:16:55;94650.31;;;23.37;39.77
21182;BME280;10749;46.296;7.524;2023-05-07T12:19:20;94648.97;;;23.40;39.99
21182;BME280;10749;46.296;7.524;2023-05-07T12:21:46;94654.19;;;23.47;40.24
21182;BME280;10749;46.296;7.524;2023-05-07T12:24:11;94647.72;;;23.48;39.77
21182;BME280;10749;46.296;7.524;2023-05-07T12:26:38;94657.13;;;23.45;39.66
21182;BME280;10749;46.296;7.524;2023-05-07T12:29:03;94648.38;;;23.28;39.84
21182;BME280;10749;46.296;7.524;2023-05-07T12:31:29;94642.44;;;23.26;40.02
21182;BME280;10749;46.296;7.524;2023-05-07T12:33:54;94642.47;;;23.36;40.07
21182;BME280;10749;46.296;7.524;2023-05-07T12:36:19;94646.94;;;23.52;40.01
21182;BME280;10749;46.296;7.524;2023-05-07T12:38:52;94648.03;;;23.56;40.18
21182;BME280;10749;46.296;7.524;2023-05-07T12:41:19;94646.66;;;23.59;40.17
21182;BME280;10749;46.296;7.524;2023-05-07T12:43:56;94647.47;;;23.59;40.13
21182;BME280;10749;46.296;7.524;2023-05-07T12:46:21;94646.97;;;23.67;39.86
21182;BME280;10749;46.296;7.524;2023-05-07T12:48:48;94645.59;;;23.65;40.32
21182;BME280;10749;46.296;7.524;2023-05-07T12:51:14;94644.53;;;23.71;39.95
21182;BME280;10749;46.296;7.524;2023-05-07T12:53:41;94647.53;;;23.79;39.99
21182;BME280;10749;46.296;7.524;2023-05-07T12:56:10;94655.63;;;23.74;39.95
21182;BME280;10749;46.296;7.524;2023-05-07T12:58:35;94648.38;;;23.80;39.85
21182;BME280;10749;46.296;7.524;2023-05-07T13:01:04;94640.25;;;23.80;40.03
21182;BME280;10749;46.296;7.524;2023-05-07T13:03:32;94644.81;;;23.64;40.05
21182;BME280;10749;46.296;7.524;2023-05-07T13:06:02;94643.47;;;23.72;39.69
21182;BME280;10749;46.296;7.524;2023-05-07T13:08:39;94637.28;;;23.76;39.57